Time;durP1;ratioP1;P1;durP2;ratioP2;P2;SDS_P1;SDS_P2;PMS_P1;PMS_P2;Temp;Humidity;BMP_temperature;BMP_pressure;BME280_temperature;BME280_humidity;BME280_pressure;Samples;Min_cycle;Max_cycle;Signal;HPM_P1;HPM_P2
2023/05/05 00:01:58;;;;;;;8.73;6.00;;;;;;;12.17;60.11;100046.41;5094644;28;20107;-81
2023/05/05 00:04:23;;;;;;;7.75;5.65;;;;;;;12.08;60.38;100042.47;5094481;28;20032;-80
2023/05/05 00:06:49;;;;;;;8.32;5.22;;;;;;;12.14;60.36;100039.59;5094594;28;20027;-80
2023/05/05 00:09:15;;;;;;;7.28;5.45;;;;;;;12.15;59.95;100041.25;5094266;28;20506;-80
2023/05/05 00:11:40;;;;;;;8.38;5.38;;;;;;;12.15;59.92;100040.44;5094405;28;20081;-80
2023/05/05 00:14:05;;;;;;;6.50;5.50;;;;;;;12.16;59.49;100044.72;5094359;28;20479;-80
2023/05/05 00:16:31;;;;;;;7.07;5.60;;;;;;;12.07;59.52;100034.72;5094765;28;20028;-81
2023/05/05 00:18:57;;;;;;;9.43;6.82;;;;;;;11.88;60.75;100022.53;5094362;28;20063;-81
2023/05/05 00:21:23;;;;;;;6.90;5.50;;;;;;;11.86;60.71;100016.50;5094079;28;20028;-81
2023/05/05 00:23:48;;;;;;;7.82;6.03;;;;;;;11.95;61.28;100043.94;5094113;28;20028;-81
2023/05/05 00:26:13;;;;;;;7.97;6.10;;;;;;;11.87;61.54;100040.84;5093876;28;20020;-80
2023/05/05 00:28:39;;;;;;;9.07;6.15;;;;;;;11.61;61.69;100000.25;5094345;28;20456;-81
2023/05/05 00:31:04;;;;;;;10.52;6.75;;;;;;;11.66;61.30;100006.94;5094240;28;20170;-81
2023/05/05 00:33:29;;;;;;;11.48;7.28;;;;;;;11.76;60.71;100025.66;5093782;28;20051;-81
2023/05/05 00:35:55;;;;;;;9.98;6.70;;;;;;;11.83;60.62;100037.53;5094148;28;20027;-80
2023/05/05 00:38:20;;;;;;;9.98;6.68;;;;;;;11.86;60.75;100026.09;5093855;28;20432;-80
2023/05/05 00:40:46;;;;;;;9.32;6.45;;;;;;;11.85;61.19;100027.03;5093938;28;20505;-80
2023/05/05 00:43:11;;;;;;;9.40;6.53;;;;;;;11.82;61.48;100021.91;5093618;28;20384;-81
2023/05/05 00:45:41;;;;;;;9.65;6.95;;;;;;;11.82;60.96;100012.31;5093931;28;20150;-81
2023/05/05 00:48:08;;;;;;;10.10;7.05;;;;;;;11.88;60.52;100022.53;5093772;28;20067;-81
2023/05/05 00:50:33;;;;;;;9.07;6.53;;;;;;;11.90;60.37;100025.91;5093625;28;20479;-80
2023/05/05 00:53:02;;;;;;;10.00;7.80;;;;;;;11.72;58.77;99991.03;5093677;28;20032;-80
2023/05/05 00:55:28;;;;;;;8.63;7.22;;;;;;;11.82;58.85;99981.00;5093268;28;20693;-80
2023/05/05 00:57:55;;;;;;;9.73;7.25;;;;;;;11.97;58.81;99998.59;5093702;28;20479;-81
2023/05/05 01:00:21;;;;;;;12.02;8.35;;;;;;;12.12;58.71;100010.06;5093449;28;20024;-81
2023/05/05 01:02:47;;;;;;;9.98;7.38;;;;;;;12.12;58.33;100007.47;5093522;28;20035;-81
2023/05/05 01:05:14;;;;;;;9.52;7.30;;;;;;;12.09;57.83;99994.53;5093272;28;20097;-81
2023/05/05 01:08:21;;;;;;;9.35;6.95;;;;;;;12.19;57.60;100010.63;5093435;28;20189;-80
2023/05/05 01:10:53;;;;;;;10.60;8.10;;;;;;;11.84;57.73;99953.13;5092145;28;20016;-80
2023/05/05 01:13:48;;;;;;;11.10;7.05;;;;;;;11.95;58.26;99974.31;5092845;28;20479;-80
2023/05/05 01:16:22;;;;;;;12.93;8.45;;;;;;;12.18;57.91;99995.91;5091574;28;20054;-80
2023/05/05 01:19:26;;;;;;;10.35;7.97;;;;;;;12.27;57.48;100007.66;5093413;28;20028;-81
2023/05/05 01:21:59;;;;;;;11.13;7.20;;;;;;;11.90;57.31;99944.97;5030599;28;20037;-81
2023/05/05 01:24:58;;;;;;;12.35;7.65;;;;;;;12.25;57.50;99999.88;5030163;28;20041;-80
2023/05/05 01:27:48;;;;;;;11.30;7.72;;;;;;;12.26;58.10;99998.13;5030166;28;20412;-81
2023/05/05 01:30:45;;;;;;;10.43;7.70;;;;;;;12.25;58.19;99997.28;5030207;28;20124;-80
2023/05/05 01:33:14;;;;;;;12.23;8.13;;;;;;;11.92;58.26;99947.50;5030116;28;20437;-80
2023/05/05 01:35:51;;;;;;;10.10;7.90;;;;;;;12.16;59.19;99987.28;5030296;28;20099;-80
2023/05/05 01:38:21;;;;;;;9.20;7.20;;;;;;;12.02;58.69;99972.28;5030029;28;20060;-80
2023/05/05 01:40:51;;;;;;;9.18;6.90;;;;;;;12.13;59.00;99990.88;5030187;28;20439;-81
2023/05/05 01:43:18;;;;;;;9.73;7.63;;;;;;;12.08;58.86;99976.34;5029630;28;20033;-81
2023/05/05 01:45:45;;;;;;;12.90;8.40;;;;;;;11.86;58.68;99950.41;5029997;28;20044;-80
2023/05/05 01:48:13;;;;;;;10.15;7.65;;;;;;;11.89;59.34;99973.78;5029884;28;20029;-81
2023/05/05 01:50:40;;;;;;;12.18;7.78;;;;;;;11.74;59.89;99957.03;5030044;28;20025;-80
2023/05/05 01:53:08;;;;;;;11.48;7.95;;;;;;;12.03;59.75;100002.69;5029990;28;20040;-80
2023/05/05 01:55:35;;;;;;;12.38;8.55;;;;;;;11.83;60.47;99972.28;5053761;28;20042;-81
2023/05/05 01:58:03;;;;;;;11.35;8.73;;;;;;;11.92;60.75;99999.72;5092416;28;20031;-80
2023/05/05 02:00:29;;;;;;;12.32;8.27;;;;;;;11.72;60.64;99993.63;5092195;28;20037;-80
2023/05/05 02:02:56;;;;;;;10.63;8.82;;;;;;;11.81;60.83;100004.56;5092047;28;20387;-80
2023/05/05 02:05:23;;;;;;;13.45;9.55;;;;;;;11.58;61.30;99982.97;5092405;28;20020;-80
2023/05/05 02:07:51;;;;;;;13.02;10.00;;;;;;;11.49;61.67;99971.19;5092318;28;20028;-81
2023/05/05 02:10:17;;;;;;;13.05;10.38;;;;;;;11.56;61.61;99981.34;5092016;28;20020;-81
2023/05/05 02:12:45;;;;;;;11.75;9.18;;;;;;;11.51;62.00;99967.69;5092670;28;20039;-81
2023/05/05 02:15:13;;;;;;;16.25;10.27;;;;;;;11.49;62.43;99965.13;5092622;28;20035;-81
2023/05/05 02:17:41;;;;;;;12.38;9.23;;;;;;;11.60;62.04;99980.31;5092120;28;20505;-80
2023/05/05 02:20:09;;;;;;;14.15;9.55;;;;;;;11.62;62.03;99984.50;5092411;28;20028;-80
2023/05/05 02:22:35;;;;;;;12.45;9.55;;;;;;;11.35;62.63;99951.88;5091901;28;20107;-80
2023/05/05 02:25:00;;;;;;;15.00;10.45;;;;;;;11.37;63.10;99955.25;5091972;28;20100;-81
2023/05/05 02:27:27;;;;;;;13.65;10.50;;;;;;;11.32;63.04;99952.84;5092055;28;20035;-80
2023/05/05 02:29:57;;;;;;;14.20;10.43;;;;;;;11.39;63.25;99969.06;5092453;28;20032;-80
2023/05/05 02:32:32;;;;;;;16.88;10.75;;;;;;;11.55;63.22;99993.56;5091808;28;20109;-80
2023/05/05 02:35:03;;;;;;;15.70;11.00;;;;;;;11.50;63.29;99966.81;5092081;28;20025;-80
2023/05/05 02:37:30;;;;;;;16.85;11.27;;;;;;;11.58;63.22;99987.34;5091798;28;20032;-80
2023/05/05 02:40:04;;;;;;;13.65;10.13;;;;;;;11.46;63.27;99976.56;5092208;28;20048;-80
2023/05/05 02:42:37;;;;;;;16.52;11.63;;;;;;;11.52;63.55;99995.44;5091956;28;20052;-80
2023/05/05 02:45:22;;;;;;;16.25;11.07;;;;;;;11.21;63.62;99960.31;5091934;28;20035;-80
2023/05/05 02:47:47;;;;;;;15.10;10.93;;;;;;;11.47;63.65;99998.28;5091843;28;20024;-80
2023/05/05 02:50:14;;;;;;;16.50;11.75;;;;;;;11.38;63.61;99988.25;5091673;28;20024;-80
2023/05/05 02:52:40;;;;;;;14.98;12.13;;;;;;;11.39;63.63;99971.69;5091970;28;20023;-80
2023/05/05 02:55:06;;;;;;;16.95;10.98;;;;;;;11.36;64.22;99993.50;5091937;28;20028;-80
2023/05/05 02:57:40;;;;;;;15.60;11.50;;;;;;;11.22;64.80;99980.25;5091619;28;20066;-80
2023/05/05 03:00:14;;;;;;;16.20;11.60;;;;;;;11.26;64.75;99983.56;5091690;28;20103;-80
2023/05/05 03:02:48;;;;;;;13.95;11.13;;;;;;;11.20;64.71;99992.50;5092038;28;20463;-80
2023/05/05 03:05:23;;;;;;;16.65;11.48;;;;;;;11.04;64.94;99963.66;5091781;28;20106;-80
2023/05/05 03:08:02;;;;;;;14.07;11.15;;;;;;;11.01;65.49;99961.19;5091831;28;20024;-80
2023/05/05 03:10:33;;;;;;;15.10;11.18;;;;;;;11.07;65.85;99984.34;5091557;28;20039;-80
2023/05/05 03:13:01;;;;;;;14.07;10.30;;;;;;;11.17;66.15;100006.53;5091434;28;20065;-81
2023/05/05 03:15:47;;;;;;;13.68;10.85;;;;;;;11.05;66.67;99988.81;5092281;28;20024;-80
2023/05/05 03:18:15;;;;;;;13.93;11.02;;;;;;;11.07;66.78;99996.53;5095578;28;20040;-80
2023/05/05 03:20:41;;;;;;;13.75;10.63;;;;;;;11.08;66.64;99993.91;5095313;28;20079;-81
2023/05/05 03:23:07;;;;;;;13.98;10.52;;;;;;;10.87;66.75;99971.34;5095381;28;20475;-80
2023/05/05 03:25:42;;;;;;;14.57;10.30;;;;;;;11.08;66.78;100009.53;5095051;28;20105;-80
2023/05/05 03:28:07;;;;;;;15.55;11.40;;;;;;;10.91;67.23;99970.28;5095395;28;20028;-80
2023/05/05 03:30:33;;;;;;;16.65;11.65;;;;;;;10.87;67.09;99967.00;5095154;28;20031;-80
2023/05/05 03:32:58;;;;;;;15.48;11.30;;;;;;;10.81;67.11;99956.81;5095207;28;20044;-81
2023/05/05 03:35:23;;;;;;;16.73;11.45;;;;;;;10.85;67.81;99963.59;5095054;28;20533;-81
2023/05/05 03:37:49;;;;;;;18.73;13.00;;;;;;;10.90;68.10;99971.22;5095160;28;20475;-81
2023/05/05 03:40:14;;;;;;;17.08;11.57;;;;;;;10.99;68.76;99992.50;5093974;28;20051;-80
2023/05/05 03:42:40;;;;;;;16.73;11.65;;;;;;;10.80;68.88;99959.50;5094848;28;20383;-80
2023/05/05 03:45:05;;;;;;;17.67;11.95;;;;;;;10.95;68.05;99977.06;5095143;28;20384;-80
2023/05/05 03:47:31;;;;;;;20.08;11.55;;;;;;;10.96;67.93;99982.22;5094943;28;20393;-81
2023/05/05 03:49:56;;;;;;;14.70;10.98;;;;;;;11.03;67.71;99990.63;5095052;28;20028;-81
2023/05/05 03:52:21;;;;;;;14.60;10.93;;;;;;;11.09;67.19;99986.91;5094722;28;20100;-81
2023/05/05 03:54:47;;;;;;;18.40;11.15;;;;;;;10.92;67.29;99954.59;5094713;28;20487;-81
2023/05/05 03:57:12;;;;;;;16.67;12.32;;;;;;;11.17;67.33;100006.53;5095052;28;20032;-81
2023/05/05 03:59:37;;;;;;;15.52;12.20;;;;;;;11.19;67.21;100001.22;5093417;28;20021;-81
2023/05/05 04:02:02;;;;;;;14.48;10.90;;;;;;;11.16;67.01;99972.69;5094877;28;20020;-81
2023/05/05 04:04:28;;;;;;;17.05;11.23;;;;;;;11.31;66.24;99979.00;5094543;28;20035;-81
2023/05/05 04:06:53;;;;;;;14.70;11.82;;;;;;;11.61;66.56;99993.25;5094626;28;20535;-81
2023/05/05 04:09:18;;;;;;;17.50;12.30;;;;;;;11.83;65.93;99994.91;5094492;28;20448;-80
2023/05/05 04:11:44;;;;;;;14.35;11.13;;;;;;;11.74;65.46;99965.69;5094719;28;20454;-81
2023/05/05 04:14:09;;;;;;;16.75;12.23;;;;;;;11.92;65.54;100002.31;5094634;28;20684;-81
2023/05/05 04:16:34;;;;;;;14.77;11.52;;;;;;;11.82;66.03;99986.22;5094452;28;20058;-81
2023/05/05 04:19:00;;;;;;;18.13;12.48;;;;;;;11.86;65.86;100002.63;5094735;28;20046;-81
2023/05/05 04:21:25;;;;;;;16.98;12.77;;;;;;;11.82;66.03;100004.50;5094319;28;20028;-81
2023/05/05 04:23:51;;;;;;;17.65;13.55;;;;;;;11.70;65.98;99987.63;5094259;28;20031;-81
2023/05/05 04:26:16;;;;;;;18.92;13.00;;;;;;;11.65;66.46;99980.94;5094184;28;20063;-81
2023/05/05 04:28:42;;;;;;;16.17;13.40;;;;;;;11.54;66.49;99968.34;5093846;28;20115;-81
2023/05/05 04:31:07;;;;;;;16.63;12.38;;;;;;;11.76;66.95;100003.94;5094131;28;20028;-81
2023/05/05 04:33:32;;;;;;;20.48;13.52;;;;;;;11.69;67.10;99985.09;5093739;28;20044;-81
2023/05/05 04:35:58;;;;;;;16.60;12.80;;;;;;;11.50;67.35;99972.03;5094180;28;20055;-81
2023/05/05 04:38:23;;;;;;;19.55;12.80;;;;;;;11.83;67.57;100019.25;5093802;28;20059;-81
2023/05/05 04:40:48;;;;;;;17.23;12.88;;;;;;;11.91;67.22;99998.88;5094228;28;20028;-81
2023/05/05 04:43:14;;;;;;;16.02;13.15;;;;;;;12.22;66.37;99997.44;5094121;28;20501;-81
2023/05/05 04:45:39;;;;;;;20.65;12.93;;;;;;;12.59;65.92;100017.38;5093833;28;20020;-81
2023/05/05 04:48:05;;;;;;;17.27;12.30;;;;;;;12.85;64.89;100005.66;5094049;28;20024;-81
2023/05/05 04:50:31;;;;;;;17.13;12.52;;;;;;;13.60;62.92;99988.69;5093671;28;20455;-81
2023/05/05 04:52:56;;;;;;;22.17;13.00;;;;;;;15.20;59.38;100007.56;5093661;28;20441;-81
2023/05/05 04:55:21;;;;;;;16.30;12.23;;;;;;;16.43;55.85;99997.28;5093862;28;20032;-81
2023/05/05 04:57:47;;;;;;;17.50;12.65;;;;;;;16.73;54.41;99983.09;5092540;28;20049;-82
2023/05/05 05:00:12;;;;;;;14.60;11.70;;;;;;;16.82;54.90;100008.81;5092466;28;20472;-81
2023/05/05 05:02:38;;;;;;;15.35;11.43;;;;;;;16.60;55.00;100010.19;5093453;28;20032;-81
2023/05/05 05:05:03;;;;;;;17.13;11.70;;;;;;;16.56;54.95;99984.16;5093562;28;20151;-82
2023/05/05 05:07:29;;;;;;;17.20;13.40;;;;;;;16.55;55.16;99993.00;5093106;28;20030;-81
2023/05/05 05:09:54;;;;;;;16.10;11.73;;;;;;;16.48;55.29;99991.75;5093702;28;20020;-82
2023/05/05 05:12:19;;;;;;;15.55;12.40;;;;;;;16.80;55.17;100026.44;5093649;28;20020;-82
2023/05/05 05:14:45;;;;;;;17.15;12.35;;;;;;;17.06;54.07;100001.03;5093183;28;20055;-81
2023/05/05 05:17:10;;;;;;;16.60;13.00;;;;;;;17.23;53.29;99989.34;5093269;28;20016;-82
2023/05/05 05:19:35;;;;;;;15.57;12.57;;;;;;;17.52;53.44;100016.28;5093038;28;20040;-82
2023/05/05 05:22:01;;;;;;;17.23;11.80;;;;;;;17.45;53.38;99995.66;5093420;28;20058;-82
2023/05/05 05:24:26;;;;;;;16.80;13.30;;;;;;;17.75;52.74;100018.22;5093105;28;20032;-82
2023/05/05 05:26:51;;;;;;;20.65;14.02;;;;;;;17.45;53.58;100050.13;5093278;28;20031;-82
2023/05/05 05:29:18;;;;;;;17.95;12.85;;;;;;;17.62;53.48;100025.25;5093193;28;20028;-82
2023/05/05 05:31:44;;;;;;;18.60;13.93;;;;;;;18.02;52.61;100025.09;5092981;28;20063;-82
2023/05/05 05:34:09;;;;;;;20.27;14.70;;;;;;;18.61;50.85;100030.44;5092929;28;20129;-82
2023/05/05 05:36:34;;;;;;;19.35;15.90;;;;;;;19.57;49.42;100052.22;5092854;28;20059;-82
2023/05/05 05:39:00;;;;;;;18.58;15.60;;;;;;;19.45;49.02;100029.38;5092509;28;20170;-82
2023/05/05 05:41:25;;;;;;;17.88;15.88;;;;;;;19.72;49.04;100063.44;5091585;28;20024;-82
2023/05/05 05:43:50;;;;;;;18.73;15.27;;;;;;;19.09;50.30;100059.47;5092673;28;20028;-82
2023/05/05 05:46:17;;;;;;;20.10;16.20;;;;;;;19.09;50.29;100051.53;5092834;28;20360;-81
2023/05/05 05:48:42;;;;;;;16.90;14.80;;;;;;;19.27;50.02;100042.22;5092540;28;20035;-82
2023/05/05 05:51:07;;;;;;;18.08;14.98;;;;;;;19.43;49.80;100060.38;5092617;28;20016;-82
2023/05/05 05:53:33;;;;;;;16.17;13.90;;;;;;;19.74;49.88;100053.56;5092456;28;20131;-82
2023/05/05 05:56:00;;;;;;;19.95;14.98;;;;;;;20.48;48.40;100040.63;5092681;28;20028;-82
2023/05/05 05:58:25;;;;;;;15.73;13.98;;;;;;;21.43;46.55;100062.69;5092655;28;20103;-82
2023/05/05 06:00:50;;;;;;;16.70;14.32;;;;;;;21.59;46.42;100048.97;5092482;28;20043;-82
2023/05/05 06:03:16;;;;;;;17.50;13.90;;;;;;;21.50;46.25;100028.56;5092565;28;20032;-82
2023/05/05 06:05:41;;;;;;;18.58;14.55;;;;;;;20.48;46.60;100040.63;5092285;28;20027;-82
2023/05/05 06:08:07;;;;;;;15.80;13.90;;;;;;;20.64;47.35;100067.50;5092339;28;20032;-82
2023/05/05 06:10:32;;;;;;;18.65;15.00;;;;;;;21.16;45.96;100055.25;5092635;28;20028;-82
2023/05/05 06:12:57;;;;;;;16.98;14.15;;;;;;;22.41;44.64;100053.28;5092630;28;20024;-82
2023/05/05 06:15:24;;;;;;;15.43;12.35;;;;;;;22.95;43.47;100043.97;5092266;28;20484;-82
2023/05/05 06:17:49;;;;;;;15.18;13.35;;;;;;;23.28;42.75;100034.69;5091971;28;20115;-83
2023/05/05 06:20:15;;;;;;;14.85;13.25;;;;;;;23.18;42.38;100070.25;5092183;28;20108;-83
2023/05/05 06:22:40;;;;;;;16.15;13.80;;;;;;;22.80;42.63;100032.09;5091891;28;20077;-83
2023/05/05 06:25:06;;;;;;;14.27;12.77;;;;;;;23.34;42.67;100062.50;5092176;28;20020;-84
2023/05/05 06:27:31;;;;;;;15.13;13.55;;;;;;;23.88;41.70;100051.16;5092042;28;20111;-84
2023/05/05 06:29:56;;;;;;;17.02;13.55;;;;;;;23.74;41.26;100027.72;5092236;28;20456;-84
2023/05/05 06:32:22;;;;;;;15.68;12.40;;;;;;;24.64;40.85;100069.50;5092353;28;20402;-84
2023/05/05 06:34:47;;;;;;;13.95;11.52;;;;;;;24.87;39.90;100056.56;5091322;28;20035;-84
2023/05/05 06:37:13;;;;;;;14.10;12.07;;;;;;;24.23;40.54;100044.28;5091805;28;20024;-83
2023/05/05 06:39:38;;;;;;;17.10;12.77;;;;;;;24.73;40.13;100072.25;5092050;28;20024;-83
2023/05/05 06:42:04;;;;;;;15.57;12.32;;;;;;;25.19;40.05;100060.50;5092181;28;20024;-83
2023/05/05 06:44:30;;;;;;;15.02;12.77;;;;;;;26.33;38.38;100053.06;5091786;28;20028;-84
2023/05/05 06:46:55;;;;;;;12.73;11.43;;;;;;;27.95;36.81;100071.94;5091927;28;20099;-81
2023/05/05 06:49:20;;;;;;;16.13;11.48;;;;;;;29.39;35.82;100071.31;5086619;28;20115;-82
2023/05/05 06:51:46;;;;;;;13.95;11.75;;;;;;;30.35;34.18;100072.25;5077923;28;20028;-82
2023/05/05 06:54:11;;;;;;;14.45;12.15;;;;;;;30.73;33.66;100054.06;5087397;28;20021;-83
2023/05/05 06:56:36;;;;;;;11.70;10.50;;;;;;;32.99;32.04;100068.72;5082132;28;20048;-82
2023/05/05 06:59:02;;;;;;;12.38;10.55;;;;;;;34.53;30.58;100065.44;5084922;28;20066;-82
2023/05/05 07:01:27;;;;;;;14.57;10.73;;;;;;;35.59;28.81;100042.88;5094729;28;20060;-82
2023/05/05 07:03:52;;;;;;;11.43;10.05;;;;;;;35.80;28.74;100043.50;5095742;28;20111;-82
2023/05/05 07:06:17;;;;;;;10.55;9.55;;;;;;;36.06;28.66;100072.19;5095643;28;20120;-83
2023/05/05 07:08:43;;;;;;;11.43;9.75;;;;;;;35.16;28.96;100072.69;5095724;28;20027;-83
2023/05/05 07:11:08;;;;;;;10.85;9.75;;;;;;;35.27;29.00;100042.19;5095825;28;20036;-83
2023/05/05 07:13:33;;;;;;;10.30;9.23;;;;;;;36.65;27.92;100046.94;5095802;28;20035;-83
2023/05/05 07:15:59;;;;;;;10.77;9.63;;;;;;;36.78;27.43;100045.91;5095685;28;20024;-83
2023/05/05 07:18:24;;;;;;;10.07;9.07;;;;;;;38.52;27.64;100042.38;5095675;28;20047;-83
2023/05/05 07:20:50;;;;;;;11.63;9.02;;;;;;;39.59;25.77;100035.88;5095274;28;20107;-83
2023/05/05 07:23:15;;;;;;;9.98;8.98;;;;;;;37.73;26.56;100034.00;5095543;28;20084;-83
2023/05/05 07:25:41;;;;;;;9.77;8.43;;;;;;;35.72;27.08;100041.91;5095451;28;20032;-82
2023/05/05 07:28:06;;;;;;;9.82;8.80;;;;;;;34.04;28.60;100041.75;5095626;28;20027;-83
2023/05/05 07:30:31;;;;;;;10.45;9.00;;;;;;;34.08;29.16;100026.75;5095262;28;20024;-83
2023/05/05 07:32:57;;;;;;;9.30;8.40;;;;;;;34.67;29.08;100030.97;5095095;28;20445;-83
2023/05/05 07:35:22;;;;;;;10.88;9.30;;;;;;;34.53;28.90;100045.66;5095259;28;20464;-83
2023/05/05 07:37:48;;;;;;;9.25;8.35;;;;;;;35.67;28.08;100037.16;5095213;28;20032;-83
2023/05/05 07:40:13;;;;;;;8.80;8.00;;;;;;;36.92;26.93;100065.53;5095382;28;20028;-83
2023/05/05 07:42:38;;;;;;;9.32;8.40;;;;;;;37.49;26.65;100044.09;5095057;28;20042;-83
2023/05/05 07:45:05;;;;;;;10.57;7.25;;;;;;;38.13;26.09;100038.63;5095047;28;20028;-83
2023/05/05 07:47:31;;;;;;;7.70;7.00;;;;;;;39.49;25.20;100033.03;5095120;28;20024;-83
2023/05/05 07:49:56;;;;;;;7.88;7.07;;;;;;;38.88;25.04;100043.81;5094903;28;20026;-83
2023/05/05 07:52:22;;;;;;;7.40;6.70;;;;;;;37.33;25.91;100061.91;5095274;28;20395;-83
2023/05/05 07:54:47;;;;;;;7.55;6.75;;;;;;;38.76;25.09;100040.31;5094924;28;20032;-83
2023/05/05 07:57:13;;;;;;;8.82;7.43;;;;;;;38.86;25.55;100026.09;5094843;28;20028;-83
2023/05/05 07:59:42;;;;;;;12.30;8.02;;;;;;;40.23;25.14;100031.72;5094801;28;20028;-83
2023/05/05 08:02:08;;;;;;;7.45;6.75;;;;;;;40.07;25.27;100053.34;5094171;28;20028;-83
2023/05/05 08:04:33;;;;;;;7.80;7.00;;;;;;;40.17;24.90;100041.78;5094760;28;20032;-83
2023/05/05 08:06:59;;;;;;;11.73;7.22;;;;;;;39.97;25.13;100044.25;5095412;28;20061;-83
2023/05/05 08:09:24;;;;;;;6.88;6.25;;;;;;;39.76;25.34;100027.66;5095008;28;20028;-82
2023/05/05 08:11:49;;;;;;;9.57;6.97;;;;;;;40.28;24.50;100031.78;5094717;28;20030;-83
2023/05/05 08:14:15;;;;;;;6.35;5.85;;;;;;;40.71;24.87;100039.03;5094818;28;20487;-82
2023/05/05 08:16:40;;;;;;;7.28;6.45;;;;;;;38.55;25.55;100055.47;5094441;28;20104;-83
2023/05/05 08:19:06;;;;;;;6.90;6.20;;;;;;;38.43;25.90;100043.81;5094603;28;20030;-82
2023/05/05 08:21:31;;;;;;;7.95;6.63;;;;;;;38.35;25.55;100028.75;5094844;28;20468;-82
2023/05/05 08:23:56;;;;;;;8.32;5.65;;;;;;;38.41;25.22;100045.97;5094286;28;20482;-82
2023/05/05 08:26:22;;;;;;;7.97;5.68;;;;;;;36.92;25.90;100051.97;5094731;28;20478;-82
2023/05/05 08:28:48;;;;;;;7.28;5.60;;;;;;;35.51;27.09;100017.97;5094692;28;20028;-82
2023/05/05 08:31:13;;;;;;;12.68;6.40;;;;;;;31.61;29.29;100041.09;5094323;28;20020;-82
2023/05/05 08:33:38;;;;;;;7.47;5.47;;;;;;;29.66;31.19;100026.09;5093749;28;20048;-82
2023/05/05 08:36:04;;;;;;;7.05;5.93;;;;;;;27.61;34.06;100046.25;5094284;28;20024;-82
2023/05/05 08:38:29;;;;;;;6.00;5.00;;;;;;;25.99;34.51;100012.28;5094452;28;20140;-81
2023/05/05 08:40:55;;;;;;;5.68;5.03;;;;;;;25.33;35.18;100043.13;5094063;28;20024;-82
2023/05/05 08:43:22;;;;;;;8.02;4.70;;;;;;;24.63;36.23;100022.56;5094128;28;20063;-82
2023/05/05 08:45:48;;;;;;;5.40;4.75;;;;;;;23.94;36.63;100024.97;5094006;28;20031;-81
2023/05/05 08:48:21;;;;;;;5.28;4.35;;;;;;;23.60;37.02;100041.47;5094028;28;20036;-82
2023/05/05 08:50:52;;;;;;;5.13;4.18;;;;;;;23.11;38.15;100009.69;5094061;28;20498;-82
2023/05/05 08:53:45;;;;;;;5.43;4.40;;;;;;;22.95;37.17;100045.78;5094033;28;20036;-82
2023/05/05 08:56:12;;;;;;;4.32;3.80;;;;;;;22.39;37.67;100002.19;5093849;28;20024;-81
2023/05/05 08:58:37;;;;;;;4.30;3.45;;;;;;;22.70;37.39;100029.41;5093574;28;20103;-81
2023/05/05 09:01:04;;;;;;;4.05;3.28;;;;;;;22.61;37.65;100004.53;5093721;28;20106;-82
2023/05/05 09:03:31;;;;;;;5.28;4.13;;;;;;;22.63;37.65;100026.50;5093964;28;20468;-81
2023/05/05 09:05:56;;;;;;;4.10;3.67;;;;;;;22.88;38.15;100035.72;5093513;28;20032;-82
2023/05/05 09:08:23;;;;;;;5.55;3.95;;;;;;;22.86;38.17;100023.53;5093973;28;20056;-81
2023/05/05 09:10:50;;;;;;;5.43;4.13;;;;;;;22.71;37.38;100001.88;5093580;28;20111;-81
2023/05/05 09:13:15;;;;;;;5.35;3.90;;;;;;;22.88;37.73;100024.22;5092379;28;20483;-81
2023/05/05 09:15:41;;;;;;;6.35;4.22;;;;;;;22.59;38.44;100027.75;5093422;28;20032;-81
2023/05/05 09:18:11;;;;;;;4.53;3.75;;;;;;;21.93;38.83;100009.72;5093926;28;20028;-81
2023/05/05 09:20:38;;;;;;;4.57;3.38;;;;;;;22.05;38.21;100047.59;5094029;28;20028;-81
2023/05/05 09:23:11;;;;;;;4.82;3.38;;;;;;;21.76;38.01;100021.00;5093497;28;20032;-81
2023/05/05 09:25:39;;;;;;;4.10;3.70;;;;;;;21.61;37.68;100028.44;5093210;28;20376;-81
2023/05/05 09:28:15;;;;;;;4.68;3.80;;;;;;;21.47;38.63;100026.16;5092043;28;20032;-81
2023/05/05 09:30:45;;;;;;;5.43;3.58;;;;;;;21.21;38.58;99998.38;5093108;28;20089;-81
2023/05/05 09:33:10;;;;;;;4.40;3.58;;;;;;;21.37;39.35;100004.94;5093501;28;20044;-82
2023/05/05 09:35:49;;;;;;;9.80;4.90;;;;;;;21.56;40.04;100035.97;5092989;28;20035;-81
2023/05/05 09:38:14;;;;;;;6.47;4.50;;;;;;;21.55;40.07;100010.44;5093045;28;20106;-81
2023/05/05 09:40:45;;;;;;;5.15;4.65;;;;;;;21.46;40.28;99987.41;5092901;28;20052;-81
2023/05/05 09:43:11;;;;;;;7.43;4.85;;;;;;;21.33;40.32;100027.34;5093039;28;20036;-81
2023/05/05 09:45:36;;;;;;;9.18;4.93;;;;;;;21.10;39.79;100007.22;5093076;28;20429;-81
2023/05/05 09:48:01;;;;;;;6.25;4.20;;;;;;;21.34;40.48;100023.72;5092783;28;20059;-81
2023/05/05 09:50:29;;;;;;;4.50;4.03;;;;;;;21.04;40.59;100003.31;5093064;28;20098;-81
2023/05/05 09:53:01;;;;;;;10.55;4.85;;;;;;;21.01;40.98;100008.03;5092432;28;20542;-81
2023/05/05 09:55:26;;;;;;;10.98;5.60;;;;;;;21.05;40.96;99996.19;5092948;28;20550;-81
2023/05/05 09:57:52;;;;;;;5.60;5.00;;;;;;;20.91;40.93;100016.75;5092784;28;20038;-81
2023/05/05 10:00:18;;;;;;;9.18;5.28;;;;;;;21.04;40.93;100027.16;5092807;28;20028;-82
2023/05/05 10:02:43;;;;;;;6.28;5.32;;;;;;;21.02;40.24;99997.28;5092487;28;20131;-82
2023/05/05 10:05:11;;;;;;;5.50;5.00;;;;;;;21.19;40.82;100035.59;5092617;28;20422;-82
2023/05/05 10:07:38;;;;;;;7.65;4.75;;;;;;;21.11;40.53;100008.91;5092497;28;20103;-82
2023/05/05 10:10:05;;;;;;;6.95;4.55;;;;;;;21.20;40.18;100029.34;5092639;28;20020;-82
2023/05/05 10:12:33;;;;;;;8.10;4.30;;;;;;;20.64;41.09;99942.28;5092726;28;20050;-82
2023/05/05 10:15:01;;;;;;;5.45;4.60;;;;;;;21.18;40.41;99980.94;5092188;28;20028;-83
2023/05/05 10:17:30;;;;;;;8.73;5.13;;;;;;;21.33;40.55;100003.50;5092609;28;20032;-82
2023/05/05 10:19:56;;;;;;;5.97;4.60;;;;;;;21.50;40.66;100011.81;5092077;28;20020;-82
2023/05/05 10:22:22;;;;;;;5.97;4.80;;;;;;;21.70;40.39;100020.66;5092274;28;20059;-82
2023/05/05 10:24:56;;;;;;;6.57;5.72;;;;;;;21.50;40.02;100025.91;5091950;28;20024;-82
2023/05/05 10:27:24;;;;;;;7.53;5.18;;;;;;;21.35;40.48;100022.75;5092306;28;20468;-82
2023/05/05 10:29:55;;;;;;;5.38;4.88;;;;;;;21.51;40.25;100024.09;5082387;28;20712;-83
2023/05/05 10:32:28;;;;;;;6.95;4.55;;;;;;;21.66;39.80;100010.34;5080230;28;20024;-83
2023/05/05 10:35:01;;;;;;;6.95;4.53;;;;;;;21.71;39.31;99994.06;5100067;28;20294;-82
2023/05/05 10:37:28;;;;;;;5.25;4.50;;;;;;;21.50;40.19;99995.91;5100298;28;20024;-82
2023/05/05 10:39:55;;;;;;;20.83;12.50;;;;;;;21.43;39.59;100017.63;5101348;28;20051;-82
2023/05/05 10:42:21;;;;;;;12.98;6.82;;;;;;;21.30;39.33;99987.00;5101650;28;20056;-83
2023/05/05 10:44:47;;;;;;;10.48;6.53;;;;;;;21.28;38.89;99987.16;5099207;28;20451;-83
2023/05/05 10:47:14;;;;;;;5.82;4.13;;;;;;;21.27;37.98;99979.31;5103443;28;20102;-83
2023/05/05 10:49:46;;;;;;;8.25;4.90;;;;;;;21.32;39.45;100001.84;5101760;28;20111;-83
2023/05/05 10:52:33;;;;;;;9.98;7.88;;;;;;;21.39;39.60;100021.50;5110423;28;20019;-83
2023/05/05 10:55:13;;;;;;;9.50;5.95;;;;;;;21.32;38.24;100011.56;5111993;28;20123;-83
2023/05/05 10:57:41;;;;;;;9.43;5.18;;;;;;;20.83;38.23;99925.69;5112279;28;20043;-83
2023/05/05 11:00:07;;;;;;;5.65;4.00;;;;;;;21.35;39.64;99993.59;5112306;28;20031;-83
2023/05/05 11:02:34;;;;;;;5.95;4.05;;;;;;;21.54;39.47;99994.69;5112563;28;20028;-83
2023/05/05 11:05:13;;;;;;;5.95;4.30;;;;;;;21.43;40.22;100000.91;5112100;28;20034;-83
2023/05/05 11:07:39;;;;;;;5.15;3.75;;;;;;;21.05;39.28;99970.56;5112303;28;20028;-83
2023/05/05 11:10:10;;;;;;;6.25;4.60;;;;;;;21.12;38.41;99992.06;5112371;28;20023;-83
2023/05/05 11:12:51;;;;;;;6.95;3.95;;;;;;;21.11;39.67;99996.53;5116754;28;20027;-83
2023/05/05 11:15:25;;;;;;;6.32;4.05;;;;;;;21.27;39.54;100000.50;5115731;28;20032;-83
2023/05/05 11:17:52;;;;;;;4.50;3.30;;;;;;;21.52;39.79;99986.84;5114516;28;20024;-83
2023/05/05 11:20:42;;;;;;;4.28;3.70;;;;;;;21.69;40.01;99977.41;5116049;28;20020;-84
2023/05/05 11:23:07;;;;;;;4.72;3.90;;;;;;;21.91;39.90;99974.56;5116090;28;20110;-83